sensor_id;sensor_type;location;lat;lon;timestamp;pressure;altitude;pressure_sealevel;temperature;humidity
8627;BME280;4351;51.422;6.794;2022-07-06T00:01:21;102093.28;;;15.82;100.00
8627;BME280;4351;51.422;6.794;2022-07-06T00:03:49;102092.44;;;15.81;100.00
8627;BME280;4351;51.422;6.794;2022-07-06T00:06:23;102098.16;;;15.91;100.00
8627;BME280;4351;51.422;6.794;2022-07-06T00:08:51;102093.88;;;15.72;100.00
8627;BME280;4351;51.422;6.794;2022-07-06T00:11:20;102097.88;;;15.81;100.00
8627;BME280;4351;51.422;6.794;2022-07-06T00:13:48;102092.03;;;15.73;100.00
8627;BME280;4351;51.422;6.794;2022-07-06T00:16:16;102089.75;;;15.65;100.00
8627;BME280;4351;51.422;6.794;2022-07-06T00:18:45;102095.97;;;15.67;100.00
8627;BME280;4351;51.422;6.794;2022-07-06T00:21:13;102091.94;;;15.74;100.00
8627;BME280;4351;51.422;6.794;2022-07-06T00:23:43;102090.38;;;15.70;100.00
8627;BME280;4351;51.422;6.794;2022-07-06T00:26:11;102087.66;;;15.85;100.00
8627;BME280;4351;51.422;6.794;2022-07-06T00:28:39;102089.53;;;15.54;100.00
8627;BME280;4351;51.422;6.794;2022-07-06T00:31:08;102092.31;;;15.68;100.00
8627;BME280;4351;51.422;6.794;2022-07-06T00:33:36;102085.47;;;15.61;100.00
8627;BME280;4351;51.422;6.794;2022-07-06T00:36:04;102088.97;;;15.63;100.00
8627;BME280;4351;51.422;6.794;2022-07-06T00:38:33;102089.16;;;15.60;100.00
8627;BME280;4351;51.422;6.794;2022-07-06T00:41:04;102093.88;;;15.72;100.00
8627;BME280;4351;51.422;6.794;2022-07-06T00:43:48;102087.03;;;15.65;100.00
8627;BME280;4351;51.422;6.794;2022-07-06T00:46:17;102090.69;;;15.49;100.00
8627;BME280;4351;51.422;6.794;2022-07-06T00:48:45;102086.22;;;15.48;100.00
8627;BME280;4351;51.422;6.794;2022-07-06T00:51:13;102094.97;;;15.54;100.00
8627;BME280;4351;51.422;6.794;2022-07-06T00:53:44;102094.41;;;15.48;100.00
8627;BME280;4351;51.422;6.794;2022-07-06T00:56:14;102098.41;;;15.57;100.00
8627;BME280;4351;51.422;6.794;2022-07-06T00:58:43;102094.25;;;15.35;100.00
8627;BME280;4351;51.422;6.794;2022-07-06T01:01:11;102095.41;;;15.31;100.00
8627;BME280;4351;51.422;6.794;2022-07-06T01:03:39;102093.09;;;15.39;100.00
8627;BME280;4351;51.422;6.794;2022-07-06T01:06:08;102098.13;;;15.31;100.00
8627;BME280;4351;51.422;6.794;2022-07-06T01:08:37;102095.03;;;15.37;100.00
8627;BME280;4351;51.422;6.794;2022-07-06T01:11:07;102108.91;;;15.33;100.00
8627;BME280;4351;51.422;6.794;2022-07-06T01:13:37;102103.84;;;15.26;100.00
8627;BME280;4351;51.422;6.794;2022-07-06T01:16:06;102105.56;;;15.27;100.00
8627;BME280;4351;51.422;6.794;2022-07-06T01:18:34;102101.91;;;15.28;100.00
8627;BME280;4351;51.422;6.794;2022-07-06T01:21:09;102106.72;;;15.23;100.00
8627;BME280;4351;51.422;6.794;2022-07-06T01:23:42;102100.50;;;15.21;100.00
8627;BME280;4351;51.422;6.794;2022-07-06T01:26:12;102096.84;;;15.06;100.00
8627;BME280;4351;51.422;6.794;2022-07-06T01:28:40;102099.88;;;15.16;100.00
8627;BME280;4351;51.422;6.794;2022-07-06T01:31:16;102096.81;;;15.22;100.00
8627;BME280;4351;51.422;6.794;2022-07-06T01:33:45;102101.03;;;15.12;100.00
8627;BME280;4351;51.422;6.794;2022-07-06T01:36:15;102094.28;;;15.19;100.00
8627;BME280;4351;51.422;6.794;2022-07-06T01:38:47;102091.56;;;15.19;100.00
8627;BME280;4351;51.422;6.794;2022-07-06T01:41:16;102088.16;;;15.15;100.00
8627;BME280;4351;51.422;6.794;2022-07-06T01:43:45;102084.94;;;15.09;100.00
8627;BME280;4351;51.422;6.794;2022-07-06T01:46:14;102087.75;;;15.07;100.00
8627;BME280;4351;51.422;6.794;2022-07-06T01:48:42;102088.59;;;15.08;100.00
8627;BME280;4351;51.422;6.794;2022-07-06T01:51:10;102085.28;;;15.02;100.00
8627;BME280;4351;51.422;6.794;2022-07-06T01:53:41;102084.31;;;15.03;100.00
8627;BME280;4351;51.422;6.794;2022-07-06T01:56:11;102083.00;;;15.11;100.00
8627;BME280;4351;51.422;6.794;2022-07-06T01:58:41;102085.28;;;15.02;100.00
8627;BME280;4351;51.422;6.794;2022-07-06T02:01:10;102072.75;;;15.00;100.00
8627;BME280;4351;51.422;6.794;2022-07-06T02:03:40;102077.41;;;14.98;100.00
8627;BME280;4351;51.422;6.794;2022-07-06T02:06:08;102087.81;;;15.05;100.00
8627;BME280;4351;51.422;6.794;2022-07-06T02:08:37;102080.91;;;15.00;100.00
8627;BME280;4351;51.422;6.794;2022-07-06T02:11:07;102082.56;;;14.86;100.00
8627;BME280;4351;51.422;6.794;2022-07-06T02:13:38;102076.41;;;14.82;100.00
8627;BME280;4351;51.422;6.794;2022-07-06T02:16:09;102077.28;;;14.83;100.00
8627;BME280;4351;51.422;6.794;2022-07-06T02:18:38;102079.97;;;14.85;100.00
8627;BME280;4351;51.422;6.794;2022-07-06T02:21:06;102078.25;;;14.82;100.00
8627;BME280;4351;51.422;6.794;2022-07-06T02:23:35;102079.97;;;14.85;100.00
8627;BME280;4351;51.422;6.794;2022-07-06T02:26:03;102073.63;;;14.84;100.00
8627;BME280;4351;51.422;6.794;2022-07-06T02:28:33;102065.50;;;14.84;100.00
8627;BME280;4351;51.422;6.794;2022-07-06T02:31:02;102068.53;;;14.78;100.00
8627;BME280;4351;51.422;6.794;2022-07-06T02:33:31;102065.38;;;14.86;100.00
8627;BME280;4351;51.422;6.794;2022-07-06T02:35:59;102062.59;;;14.87;100.00
8627;BME280;4351;51.422;6.794;2022-07-06T02:38:28;102063.34;;;14.73;100.00
8627;BME280;4351;51.422;6.794;2022-07-06T02:40:57;102068.28;;;14.82;100.00
8627;BME280;4351;51.422;6.794;2022-07-06T02:43:25;102074.84;;;14.78;100.00
8627;BME280;4351;51.422;6.794;2022-07-06T02:45:55;102079.31;;;14.79;100.00
8627;BME280;4351;51.422;6.794;2022-07-06T02:48:24;102077.72;;;14.75;100.00
8627;BME280;4351;51.422;6.794;2022-07-06T02:50:53;102076.84;;;14.75;100.00
8627;BME280;4351;51.422;6.794;2022-07-06T02:53:22;102080.09;;;14.81;100.00
8627;BME280;4351;51.422;6.794;2022-07-06T02:55:53;102079.31;;;14.63;100.00
8627;BME280;4351;51.422;6.794;2022-07-06T02:58:21;102080.53;;;14.57;100.00
8627;BME280;4351;51.422;6.794;2022-07-06T03:00:51;102082.34;;;14.57;100.00
8627;BME280;4351;51.422;6.794;2022-07-06T03:03:21;102084.28;;;14.55;100.00
8627;BME280;4351;51.422;6.794;2022-07-06T03:05:49;102087.72;;;14.58;100.00
8627;BME280;4351;51.422;6.794;2022-07-06T03:08:19;102094.53;;;14.50;100.00
8627;BME280;4351;51.422;6.794;2022-07-06T03:10:48;102096.81;;;14.57;100.00
8627;BME280;4351;51.422;6.794;2022-07-06T03:13:17;102108.38;;;14.45;100.00
8627;BME280;4351;51.422;6.794;2022-07-06T03:15:46;102106.44;;;14.47;100.00
8627;BME280;4351;51.422;6.794;2022-07-06T03:18:14;102106.59;;;14.44;100.00
8627;BME280;4351;51.422;6.794;2022-07-06T03:20:44;102105.38;;;14.33;100.00
8627;BME280;4351;51.422;6.794;2022-07-06T03:23:14;102100.63;;;14.37;100.00
8627;BME280;4351;51.422;6.794;2022-07-06T03:25:44;102100.81;;;14.34;100.00
8627;BME280;4351;51.422;6.794;2022-07-06T03:28:12;102108.53;;;14.42;100.00
8627;BME280;4351;51.422;6.794;2022-07-06T03:30:40;102102.31;;;14.40;100.00
8627;BME280;4351;51.422;6.794;2022-07-06T03:33:09;102096.63;;;14.28;100.00
8627;BME280;4351;51.422;6.794;2022-07-06T03:35:38;102101.72;;;14.34;100.00
8627;BME280;4351;51.422;6.794;2022-07-06T03:38:10;102100.72;;;14.35;100.00
8627;BME280;4351;51.422;6.794;2022-07-06T03:40:40;102097.41;;;14.30;100.00
8627;BME280;4351;51.422;6.794;2022-07-06T03:43:09;102100.56;;;14.39;100.00
8627;BME280;4351;51.422;6.794;2022-07-06T03:45:38;102101.13;;;14.11;100.00
8627;BME280;4351;51.422;6.794;2022-07-06T03:48:06;102096.66;;;14.10;100.00
8627;BME280;4351;51.422;6.794;2022-07-06T03:50:36;102100.19;;;14.12;100.00
8627;BME280;4351;51.422;6.794;2022-07-06T03:53:05;102091.84;;;14.16;100.00
8627;BME280;4351;51.422;6.794;2022-07-06T03:55:35;102093.63;;;14.17;100.00
8627;BME280;4351;51.422;6.794;2022-07-06T03:58:07;102098.09;;;14.00;100.00
8627;BME280;4351;51.422;6.794;2022-07-06T04:00:40;102103.13;;;14.08;100.00
8627;BME280;4351;51.422;6.794;2022-07-06T04:03:14;102106.75;;;13.90;100.00
8627;BME280;4351;51.422;6.794;2022-07-06T04:05:47;102111.41;;;14.05;100.00
8627;BME280;4351;51.422;6.794;2022-07-06T04:08:16;102105.09;;;14.04;100.00
8627;BME280;4351;51.422;6.794;2022-07-06T04:10:51;102107.38;;;13.96;100.00
8627;BME280;4351;51.422;6.794;2022-07-06T04:13:21;102117.59;;;14.08;100.00
8627;BME280;4351;51.422;6.794;2022-07-06T04:15:51;102104.81;;;14.10;100.00
8627;BME280;4351;51.422;6.794;2022-07-06T04:18:20;102111.03;;;14.12;100.00
8627;BME280;4351;51.422;6.794;2022-07-06T04:21:02;102103.59;;;14.16;100.00
8627;BME280;4351;51.422;6.794;2022-07-06T04:23:34;102110.50;;;14.22;100.00
8627;BME280;4351;51.422;6.794;2022-07-06T04:26:05;102106.06;;;14.21;100.00
8627;BME280;4351;51.422;6.794;2022-07-06T04:28:36;102098.44;;;14.28;100.00
8627;BME280;4351;51.422;6.794;2022-07-06T04:31:04;102105.38;;;14.33;100.00
8627;BME280;4351;51.422;6.794;2022-07-06T04:33:33;102107.69;;;14.41;100.00
8627;BME280;4351;51.422;6.794;2022-07-06T04:36:02;102116.06;;;14.36;100.00
8627;BME280;4351;51.422;6.794;2022-07-06T04:38:37;102113.31;;;14.54;100.00
8627;BME280;4351;51.422;6.794;2022-07-06T04:41:08;102110.13;;;14.46;100.00
8627;BME280;4351;51.422;6.794;2022-07-06T04:43:37;102100.44;;;14.24;100.00
8627;BME280;4351;51.422;6.794;2022-07-06T04:46:08;102099.84;;;14.35;100.00
8627;BME280;4351;51.422;6.794;2022-07-06T04:48:40;102099.44;;;14.43;100.00
8627;BME280;4351;51.422;6.794;2022-07-06T04:51:13;102106.28;;;14.50;100.00
8627;BME280;4351;51.422;6.794;2022-07-06T04:53:41;102094.53;;;14.50;100.00
8627;BME280;4351;51.422;6.794;2022-07-06T04:56:11;102100.66;;;14.53;100.00
8627;BME280;4351;51.422;6.794;2022-07-06T04:58:40;102098.22;;;14.48;100.00
8627;BME280;4351;51.422;6.794;2022-07-06T05:01:12;102103.03;;;14.59;100.00
8627;BME280;4351;51.422;6.794;2022-07-06T05:03:42;102091.91;;;14.64;100.00
8627;BME280;4351;51.422;6.794;2022-07-06T05:06:12;102091.13;;;14.62;100.00
8627;BME280;4351;51.422;6.794;2022-07-06T05:08:41;102087.19;;;14.68;100.00
8627;BME280;4351;51.422;6.794;2022-07-06T05:11:11;102088.44;;;14.78;100.00
8627;BME280;4351;51.422;6.794;2022-07-06T05:13:41;102099.09;;;14.81;100.00
8627;BME280;4351;51.422;6.794;2022-07-06T05:16:10;102098.78;;;14.88;100.00
8627;BME280;4351;51.422;6.794;2022-07-06T05:18:38;102094.22;;;14.88;100.00
8627;BME280;4351;51.422;6.794;2022-07-06T05:21:06;102096.84;;;14.90;100.00
8627;BME280;4351;51.422;6.794;2022-07-06T05:23:34;102105.69;;;14.77;100.00
8627;BME280;4351;51.422;6.794;2022-07-06T05:26:03;102112.47;;;15.02;100.00
8627;BME280;4351;51.422;6.794;2022-07-06T05:28:34;102111.22;;;14.92;100.00
8627;BME280;4351;51.422;6.794;2022-07-06T05:31:05;102113.06;;;15.08;100.00
8627;BME280;4351;51.422;6.794;2022-07-06T05:33:34;102112.09;;;15.09;100.00
8627;BME280;4351;51.422;6.794;2022-07-06T05:36:03;102121.41;;;15.04;100.00
8627;BME280;4351;51.422;6.794;2022-07-06T05:38:32;102112.09;;;15.09;100.00
8627;BME280;4351;51.422;6.794;2022-07-06T05:41:00;102119.47;;;15.07;100.00
8627;BME280;4351;51.422;6.794;2022-07-06T05:43:29;102109.63;;;15.20;100.00
8627;BME280;4351;51.422;6.794;2022-07-06T05:46:01;102112.78;;;15.28;100.00
8627;BME280;4351;51.422;6.794;2022-07-06T05:48:31;102117.50;;;15.25;100.00
8627;BME280;4351;51.422;6.794;2022-07-06T05:51:18;102119.16;;;15.27;100.00
8627;BME280;4351;51.422;6.794;2022-07-06T05:53:47;102122.50;;;15.33;100.00
8627;BME280;4351;51.422;6.794;2022-07-06T05:56:15;102129.13;;;15.43;100.00
8627;BME280;4351;51.422;6.794;2022-07-06T05:58:44;102133.91;;;15.70;100.00
8627;BME280;4351;51.422;6.794;2022-07-06T06:01:14;102139.75;;;15.48;100.00
8627;BME280;4351;51.422;6.794;2022-07-06T06:03:49;102136.69;;;15.38;100.00
8627;BME280;4351;51.422;6.794;2022-07-06T06:06:17;102139.13;;;15.43;100.00
8627;BME280;4351;51.422;6.794;2022-07-06T06:08:45;102138.69;;;15.50;100.00
8627;BME280;4351;51.422;6.794;2022-07-06T06:11:14;102147.22;;;15.44;100.00
8627;BME280;4351;51.422;6.794;2022-07-06T06:13:43;102144.91;;;15.52;100.00
8627;BME280;4351;51.422;6.794;2022-07-06T06:16:11;102140.41;;;15.51;100.00
8627;BME280;4351;51.422;6.794;2022-07-06T06:18:41;102139.63;;;15.49;100.00
8627;BME280;4351;51.422;6.794;2022-07-06T06:21:10;102140.63;;;15.48;100.00
8627;BME280;4351;51.422;6.794;2022-07-06T06:23:38;102136.38;;;15.59;100.00
8627;BME280;4351;51.422;6.794;2022-07-06T06:26:06;102146.38;;;15.58;100.00
8627;BME280;4351;51.422;6.794;2022-07-06T06:28:37;102139.13;;;15.73;100.00
8627;BME280;4351;51.422;6.794;2022-07-06T06:31:05;102142.84;;;15.72;100.00
8627;BME280;4351;51.422;6.794;2022-07-06T06:33:34;102142.44;;;15.64;100.00
8627;BME280;4351;51.422;6.794;2022-07-06T06:36:07;102134.69;;;15.72;100.00
8627;BME280;4351;51.422;6.794;2022-07-06T06:38:36;102142.00;;;15.56;100.00
8627;BME280;4351;51.422;6.794;2022-07-06T06:41:04;102142.31;;;15.66;100.00
8627;BME280;4351;51.422;6.794;2022-07-06T06:43:35;102141.44;;;15.65;100.00
8627;BME280;4351;51.422;6.794;2022-07-06T06:46:10;102142.22;;;15.67;100.00
8627;BME280;4351;51.422;6.794;2022-07-06T06:48:38;102142.63;;;15.75;100.00
8627;BME280;4351;51.422;6.794;2022-07-06T06:51:08;102138.47;;;15.84;100.00
8627;BME280;4351;51.422;6.794;2022-07-06T06:53:37;102137.03;;;15.93;100.00
8627;BME280;4351;51.422;6.794;2022-07-06T06:56:06;102146.47;;;16.02;100.00
8627;BME280;4351;51.422;6.794;2022-07-06T06:58:35;102144.66;;;16.03;100.00
8627;BME280;4351;51.422;6.794;2022-07-06T07:01:24;102147.78;;;16.11;100.00
8627;BME280;4351;51.422;6.794;2022-07-06T07:03:52;102156.28;;;16.21;100.00
8627;BME280;4351;51.422;6.794;2022-07-06T07:18:17;102158.09;;;16.35;100.00
8627;BME280;4351;51.422;6.794;2022-07-06T07:20:45;102163.56;;;16.35;100.00
8627;BME280;4351;51.422;6.794;2022-07-06T07:23:14;102168.53;;;16.43;100.00
8627;BME280;4351;51.422;6.794;2022-07-06T07:25:43;102155.56;;;16.61;100.00
8627;BME280;4351;51.422;6.794;2022-07-06T07:28:11;102174.38;;;16.51;100.00
8627;BME280;4351;51.422;6.794;2022-07-06T07:30:49;102167.47;;;16.60;100.00
8627;BME280;4351;51.422;6.794;2022-07-06T07:33:49;102164.72;;;16.75;100.00
8627;BME280;4351;51.422;6.794;2022-07-06T07:36:42;102171.34;;;16.56;100.00
8627;BME280;4351;51.422;6.794;2022-07-06T07:39:13;102169.69;;;16.68;100.00
8627;BME280;4351;51.422;6.794;2022-07-06T07:41:47;102167.84;;;16.69;100.00
8627;BME280;4351;51.422;6.794;2022-07-06T07:44:17;102169.19;;;16.61;100.00
8627;BME280;4351;51.422;6.794;2022-07-06T07:46:48;102167.47;;;16.60;100.00
8627;BME280;4351;51.422;6.794;2022-07-06T07:49:20;102172.41;;;16.68;100.00
8627;BME280;4351;51.422;6.794;2022-07-06T07:51:54;102171.34;;;16.71;100.00
8627;BME280;4351;51.422;6.794;2022-07-06T07:54:24;102170.06;;;16.76;100.00
8627;BME280;4351;51.422;6.794;2022-07-06T07:56:56;102174.03;;;16.85;100.00
8627;BME280;4351;51.422;6.794;2022-07-06T07:59:24;102174.63;;;16.91;100.00
8627;BME280;4351;51.422;6.794;2022-07-06T08:02:00;102169.28;;;16.89;100.00
8627;BME280;4351;51.422;6.794;2022-07-06T08:04:29;102168.09;;;16.93;100.00
8627;BME280;4351;51.422;6.794;2022-07-06T08:07:00;102175.22;;;16.96;100.00
8627;BME280;4351;51.422;6.794;2022-07-06T08:09:33;102169.50;;;16.71;100.00
8627;BME280;4351;51.422;6.794;2022-07-06T08:12:06;102167.63;;;16.86;100.00
8627;BME280;4351;51.422;6.794;2022-07-06T08:14:35;102169.94;;;16.93;100.00
8627;BME280;4351;51.422;6.794;2022-07-06T08:17:06;102166.06;;;16.82;100.00
8627;BME280;4351;51.422;6.794;2022-07-06T08:19:35;102169.53;;;16.99;100.00
8627;BME280;4351;51.422;6.794;2022-07-06T08:22:07;102169.06;;;16.92;100.00
8627;BME280;4351;51.422;6.794;2022-07-06T08:24:39;102174.28;;;17.10;100.00
8627;BME280;4351;51.422;6.794;2022-07-06T08:27:10;102173.22;;;17.12;100.00
8627;BME280;4351;51.422;6.794;2022-07-06T08:29:40;102167.56;;;17.01;100.00
8627;BME280;4351;51.422;6.794;2022-07-06T08:32:09;102167.72;;;16.85;100.00
8627;BME280;4351;51.422;6.794;2022-07-06T08:34:52;102168.25;;;17.05;100.00
8627;BME280;4351;51.422;6.794;2022-07-06T08:37:24;102162.41;;;17.11;100.00
8627;BME280;4351;51.422;6.794;2022-07-06T08:39:56;102161.94;;;17.04;100.00
8627;BME280;4351;51.422;6.794;2022-07-06T08:42:29;102162.94;;;16.88;100.00
8627;BME280;4351;51.422;6.794;2022-07-06T08:44:59;102164.44;;;17.22;100.00
8627;BME280;4351;51.422;6.794;2022-07-06T08:47:30;102164.84;;;17.16;100.00
8627;BME280;4351;51.422;6.794;2022-07-06T08:50:02;102163.47;;;17.23;100.00
8627;BME280;4351;51.422;6.794;2022-07-06T08:52:34;102163.25;;;17.11;100.00
8627;BME280;4351;51.422;6.794;2022-07-06T08:55:06;102163.34;;;17.24;100.00
8627;BME280;4351;51.422;6.794;2022-07-06T08:57:39;102163.28;;;17.26;100.00
8627;BME280;4351;51.422;6.794;2022-07-06T09:00:09;102164.69;;;17.32;100.00
8627;BME280;4351;51.422;6.794;2022-07-06T09:02:43;102167.13;;;17.37;100.00
8627;BME280;4351;51.422;6.794;2022-07-06T09:05:16;102162.28;;;17.27;100.00
8627;BME280;4351;51.422;6.794;2022-07-06T09:07:50;102175.47;;;17.48;100.00
8627;BME280;4351;51.422;6.794;2022-07-06T09:10:28;102175.88;;;17.42;100.00
8627;BME280;4351;51.422;6.794;2022-07-06T09:13:03;102170.03;;;17.33;100.00
8627;BME280;4351;51.422;6.794;2022-07-06T09:15:34;102172.81;;;17.46;100.00
8627;BME280;4351;51.422;6.794;2022-07-06T09:18:03;102160.97;;;17.61;100.00
8627;BME280;4351;51.422;6.794;2022-07-06T09:20:35;102163.25;;;17.54;100.00
8627;BME280;4351;51.422;6.794;2022-07-06T09:23:07;102158.97;;;17.50;100.00
8627;BME280;4351;51.422;6.794;2022-07-06T09:25:47;102158.44;;;17.57;100.00
8627;BME280;4351;51.422;6.794;2022-07-06T09:28:19;102163.50;;;17.64;100.00
8627;BME280;4351;51.422;6.794;2022-07-06T09:30:54;102155.75;;;17.70;100.00
8627;BME280;4351;51.422;6.794;2022-07-06T09:33:33;102158.59;;;17.69;100.00
8627;BME280;4351;51.422;6.794;2022-07-06T09:36:08;102158.56;;;17.56;100.00
8627;BME280;4351;51.422;6.794;2022-07-06T09:38:37;102158.88;;;17.51;100.00
8627;BME280;4351;51.422;6.794;2022-07-06T09:41:08;102152.97;;;17.57;100.00
8627;BME280;4351;51.422;6.794;2022-07-06T09:43:37;102157.03;;;17.52;100.00
8627;BME280;4351;51.422;6.794;2022-07-06T09:46:07;102154.53;;;17.62;100.00
8627;BME280;4351;51.422;6.794;2022-07-06T09:48:36;102156.50;;;17.73;100.00
8627;BME280;4351;51.422;6.794;2022-07-06T09:51:12;102159.28;;;17.86;100.00
8627;BME280;4351;51.422;6.794;2022-07-06T09:53:52;102164.19;;;17.80;100.00
8627;BME280;4351;51.422;6.794;2022-07-06T09:56:36;102155.00;;;17.81;100.00
8627;BME280;4351;51.422;6.794;2022-07-06T09:59:08;102154.59;;;17.75;100.00
8627;BME280;4351;51.422;6.794;2022-07-06T10:01:40;102160.25;;;17.85;100.00
8627;BME280;4351;51.422;6.794;2022-07-06T10:04:14;102159.34;;;17.71;100.00
8627;BME280;4351;51.422;6.794;2022-07-06T10:06:46;102154.47;;;17.76;100.00
8627;BME280;4351;51.422;6.794;2022-07-06T10:09:16;102153.47;;;17.77;100.00
8627;BME280;4351;51.422;6.794;2022-07-06T10:11:52;102153.91;;;17.84;100.00
8627;BME280;4351;51.422;6.794;2022-07-06T10:14:22;102157.97;;;17.91;100.00
8627;BME280;4351;51.422;6.794;2022-07-06T10:16:55;102153.50;;;18.03;100.00
8627;BME280;4351;51.422;6.794;2022-07-06T10:19:25;102155.47;;;18.01;100.00
8627;BME280;4351;51.422;6.794;2022-07-06T10:21:58;102152.69;;;18.29;100.00
8627;BME280;4351;51.422;6.794;2022-07-06T10:24:30;102160.31;;;18.37;100.00
8627;BME280;4351;51.422;6.794;2022-07-06T10:27:04;102151.56;;;18.58;100.00
8627;BME280;4351;51.422;6.794;2022-07-06T10:29:33;102155.72;;;18.50;100.00
8627;BME280;4351;51.422;6.794;2022-07-06T10:32:08;102145.00;;;18.47;100.00
8627;BME280;4351;51.422;6.794;2022-07-06T10:34:40;102155.06;;;18.47;100.00
8627;BME280;4351;51.422;6.794;2022-07-06T10:37:23;102153.09;;;18.49;100.00
8627;BME280;4351;51.422;6.794;2022-07-06T10:39:53;102153.06;;;18.75;100.00
8627;BME280;4351;51.422;6.794;2022-07-06T10:42:43;102155.75;;;18.88;100.00
8627;BME280;4351;51.422;6.794;2022-07-06T10:45:19;102157.25;;;18.92;100.00
8627;BME280;4351;51.422;6.794;2022-07-06T10:48:16;102151.06;;;18.77;100.00
8627;BME280;4351;51.422;6.794;2022-07-06T10:50:50;102147.13;;;18.81;100.00
8627;BME280;4351;51.422;6.794;2022-07-06T10:53:26;102144.38;;;18.81;100.00
8627;BME280;4351;51.422;6.794;2022-07-06T10:55:57;102143.63;;;18.79;100.00
8627;BME280;4351;51.422;6.794;2022-07-06T10:58:46;102147.31;;;18.54;100.00
8627;BME280;4351;51.422;6.794;2022-07-06T11:01:21;102149.56;;;18.73;100.00
8627;BME280;4351;51.422;6.794;2022-07-06T11:04:06;102136.41;;;18.78;100.00
8627;BME280;4351;51.422;6.794;2022-07-06T11:06:51;102141.84;;;18.91;100.00
8627;BME280;4351;51.422;6.794;2022-07-06T11:09:31;102143.59;;;18.92;100.00
8627;BME280;4351;51.422;6.794;2022-07-06T11:12:15;102143.34;;;18.95;100.00
8627;BME280;4351;51.422;6.794;2022-07-06T11:14:51;102144.88;;;19.00;100.00
8627;BME280;4351;51.422;6.794;2022-07-06T11:17:22;102135.00;;;19.10;100.00
8627;BME280;4351;51.422;6.794;2022-07-06T11:20:08;102135.13;;;19.09;100.00
8627;BME280;4351;51.422;6.794;2022-07-06T11:22:40;102130.13;;;19.27;100.00
8627;BME280;4351;51.422;6.794;2022-07-06T11:25:12;102119.88;;;19.17;100.00
8627;BME280;4351;51.422;6.794;2022-07-06T11:27:43;102126.41;;;19.28;100.00
8627;BME280;4351;51.422;6.794;2022-07-06T11:30:15;102134.34;;;19.20;100.00
8627;BME280;4351;51.422;6.794;2022-07-06T11:32:44;102138.19;;;19.41;100.00
8627;BME280;4351;51.422;6.794;2022-07-06T11:35:21;102132.06;;;19.74;100.00
8627;BME280;4351;51.422;6.794;2022-07-06T11:37:50;102128.31;;;19.75;100.00
8627;BME280;4351;51.422;6.794;2022-07-06T11:40:18;102129.19;;;19.39;100.00
8627;BME280;4351;51.422;6.794;2022-07-06T11:42:53;102127.94;;;19.32;100.00
8627;BME280;4351;51.422;6.794;2022-07-06T11:45:27;102125.75;;;19.24;100.00
8627;BME280;4351;51.422;6.794;2022-07-06T11:48:09;102122.84;;;19.14;100.00
8627;BME280;4351;51.422;6.794;2022-07-06T11:50:38;102132.59;;;19.18;100.00
8627;BME280;4351;51.422;6.794;2022-07-06T11:53:07;102123.97;;;19.36;100.00
8627;BME280;4351;51.422;6.794;2022-07-06T11:55:40;102126.41;;;19.28;100.00
8627;BME280;4351;51.422;6.794;2022-07-06T11:58:10;102124.19;;;19.33;100.00
8627;BME280;4351;51.422;6.794;2022-07-06T12:00:41;102125.47;;;19.40;100.00
8627;BME280;4351;51.422;6.794;2022-07-06T12:03:10;102116.38;;;19.40;100.00
8627;BME280;4351;51.422;6.794;2022-07-06T12:05:40;102123.81;;;19.62;100.00
8627;BME280;4351;51.422;6.794;2022-07-06T12:08:09;102117.47;;;19.37;100.00
8627;BME280;4351;51.422;6.794;2022-07-06T12:10:42;102112.66;;;19.41;100.00
8627;BME280;4351;51.422;6.794;2022-07-06T12:13:10;102105.34;;;19.41;100.00
8627;BME280;4351;51.422;6.794;2022-07-06T12:15:42;102104.50;;;19.52;100.00
8627;BME280;4351;51.422;6.794;2022-07-06T12:18:11;102113.47;;;19.55;100.00
8627;BME280;4351;51.422;6.794;2022-07-06T12:20:40;102113.09;;;19.59;100.00
8627;BME280;4351;51.422;6.794;2022-07-06T12:23:09;102102.56;;;19.78;100.00
8627;BME280;4351;51.422;6.794;2022-07-06T12:25:38;102094.84;;;19.71;100.00
8627;BME280;4351;51.422;6.794;2022-07-06T12:28:24;102098.47;;;19.83;100.00
8627;BME280;4351;51.422;6.794;2022-07-06T12:30:54;102099.34;;;19.84;100.00
8627;BME280;4351;51.422;6.794;2022-07-06T12:33:23;102094.75;;;19.84;100.00
8627;BME280;4351;51.422;6.794;2022-07-06T12:35:56;102085.91;;;19.92;100.00
8627;BME280;4351;51.422;6.794;2022-07-06T12:38:27;102081.47;;;20.14;100.00
8627;BME280;4351;51.422;6.794;2022-07-06T12:40:57;102087.91;;;19.90;100.00
8627;BME280;4351;51.422;6.794;2022-07-06T12:43:37;102081.19;;;19.83;100.00
8627;BME280;4351;51.422;6.794;2022-07-06T12:46:32;102086.66;;;20.06;100.00
8627;BME280;4351;51.422;6.794;2022-07-06T12:49:15;102075.34;;;19.87;100.00
8627;BME280;4351;51.422;6.794;2022-07-06T12:51:56;102082.50;;;20.25;100.00
8627;BME280;4351;51.422;6.794;2022-07-06T12:54:28;102077.63;;;20.17;100.00
8627;BME280;4351;51.422;6.794;2022-07-06T12:57:03;102066.91;;;20.25;100.00
8627;BME280;4351;51.422;6.794;2022-07-06T12:59:35;102070.25;;;20.52;100.00
8627;BME280;4351;51.422;6.794;2022-07-06T13:02:06;102075.72;;;20.52;100.00
8627;BME280;4351;51.422;6.794;2022-07-06T13:04:37;102073.84;;;20.64;100.00
8627;BME280;4351;51.422;6.794;2022-07-06T13:07:18;102072.59;;;20.56;100.00
8627;BME280;4351;51.422;6.794;2022-07-06T13:09:47;102072.75;;;20.43;100.00
8627;BME280;4351;51.422;6.794;2022-07-06T13:12:17;102068.66;;;20.38;100.00
8627;BME280;4351;51.422;6.794;2022-07-06T13:14:47;102066.00;;;20.48;100.00
8627;BME280;4351;51.422;6.794;2022-07-06T13:17:17;102061.28;;;20.50;100.00
8627;BME280;4351;51.422;6.794;2022-07-06T13:19:50;102053.06;;;20.38;100.00
8627;BME280;4351;51.422;6.794;2022-07-06T13:22:19;102064.25;;;20.58;100.00
8627;BME280;4351;51.422;6.794;2022-07-06T13:24:48;102049.53;;;20.71;100.00
8627;BME280;4351;51.422;6.794;2022-07-06T13:27:19;102058.41;;;20.51;100.00
8627;BME280;4351;51.422;6.794;2022-07-06T13:29:49;102051.22;;;20.27;100.00
8627;BME280;4351;51.422;6.794;2022-07-06T13:32:20;102055.66;;;20.51;100.00
8627;BME280;4351;51.422;6.794;2022-07-06T13:34:52;102048.84;;;20.34;100.00